createdAt,value
2024-05-09T00:01:20.819Z,17.92
2024-05-09T00:06:23.182Z,17.88
2024-05-09T00:11:28.133Z,17.84
2024-05-09T00:16:33.817Z,17.81
2024-05-09T00:21:36.163Z,17.77
2024-05-09T00:26:38.803Z,17.74
2024-05-09T00:31:41.167Z,17.72
2024-05-09T00:36:47.882Z,17.69
2024-05-09T00:41:53.015Z,17.68
2024-05-09T00:46:57.744Z,17.67
2024-05-09T00:52:03.450Z,17.67
2024-05-09T00:57:08.644Z,17.68
2024-05-09T01:05:22.559Z,17.64
2024-05-09T01:10:32.221Z,17.61
2024-05-09T01:15:40.191Z,17.55
2024-05-09T01:20:45.367Z,17.52
2024-05-09T01:26:00.358Z,17.48
2024-05-09T01:31:05.875Z,17.43
2024-05-09T01:36:08.293Z,17.41
2024-05-09T01:41:10.976Z,17.38
2024-05-09T01:46:15.768Z,17.35
2024-05-09T01:51:18.671Z,17.28
2024-05-09T01:56:21.285Z,17.23
2024-05-09T02:01:23.751Z,17.17
2024-05-09T02:06:30.967Z,17.10
2024-05-09T02:11:45.001Z,17.05
2024-05-09T02:16:57.261Z,16.98
2024-05-09T02:21:59.719Z,16.93
2024-05-09T02:27:03.518Z,16.87
2024-05-09T02:32:32.777Z,16.81
2024-05-09T02:41:09.624Z,16.71
2024-05-09T02:46:14.106Z,16.68
2024-05-09T02:51:23.967Z,16.63
2024-05-09T02:56:26.300Z,16.59
2024-05-09T03:01:31.421Z,16.51
2024-05-09T03:06:34.072Z,16.44
2024-05-09T03:11:40.806Z,16.36
2024-05-09T03:17:12.216Z,16.25
2024-05-09T03:22:14.914Z,16.18
2024-05-09T03:27:18.021Z,16.14
2024-05-09T03:32:20.940Z,16.09
2024-05-09T03:42:59.825Z,15.99
2024-05-09T03:48:02.465Z,15.91
2024-05-09T03:53:40.404Z,15.84
2024-05-09T03:58:45.143Z,15.78
2024-05-09T04:03:53.361Z,15.76
2024-05-09T04:08:56.867Z,15.74
2024-05-09T04:13:59.802Z,15.70
2024-05-09T04:19:09.824Z,15.67
2024-05-09T04:24:12.389Z,15.62
2024-05-09T04:29:17.772Z,15.58
2024-05-09T04:34:21.154Z,15.55
2024-05-09T04:39:29.496Z,15.51
2024-05-09T04:44:34.593Z,15.50
2024-05-09T04:49:42.589Z,15.45
2024-05-09T04:54:53.076Z,15.44
2024-05-09T04:59:59.428Z,15.42
2024-05-09T05:05:03.139Z,15.43
2024-05-09T05:10:11.842Z,15.44
2024-05-09T05:15:22.280Z,15.45
2024-05-09T05:20:33.534Z,15.46
2024-05-09T05:25:39.387Z,15.47
2024-05-09T05:30:43.716Z,15.48
2024-05-09T05:35:50.185Z,15.52
2024-05-09T05:41:01.605Z,15.55
2024-05-09T05:46:06.112Z,15.60
2024-05-09T05:51:20.848Z,15.66
2024-05-09T05:56:35.978Z,15.67
2024-05-09T06:01:43.361Z,15.72
2024-05-09T06:06:45.738Z,15.79
2024-05-09T06:11:48.425Z,15.88
2024-05-09T06:16:50.873Z,15.92
2024-05-09T06:21:59.165Z,16.02
2024-05-09T06:27:08.242Z,16.14
2024-05-09T06:32:14.354Z,16.27
2024-05-09T06:37:17.799Z,16.43
2024-05-09T06:42:21.689Z,16.57
2024-05-09T06:47:26.455Z,16.79
2024-05-09T06:52:31.542Z,17.11
2024-05-09T06:57:39.099Z,17.52
2024-05-09T07:02:45.195Z,17.98
2024-05-09T07:07:56.843Z,18.44
2024-05-09T07:13:03.777Z,18.92
2024-05-09T07:18:21.249Z,19.37
2024-05-09T07:23:36.577Z,19.77
2024-05-09T07:28:42.786Z,20.09
2024-05-09T07:33:48.370Z,20.38
2024-05-09T07:38:53.356Z,20.65
2024-05-09T07:43:58.174Z,20.83
2024-05-09T07:50:53.168Z,20.94
2024-05-09T07:54:31.570Z,21.14
2024-05-09T07:59:37.944Z,21.32
2024-05-09T08:04:42.404Z,21.45
2024-05-09T08:09:47.189Z,21.59
2024-05-09T08:14:54.815Z,21.70
2024-05-09T08:20:01.016Z,21.67
2024-05-09T08:25:06.988Z,21.79
2024-05-09T08:30:29.704Z,21.85
2024-05-09T08:35:37.741Z,22.03
2024-05-09T08:40:45.254Z,22.16
2024-05-09T08:45:52.736Z,22.29
2024-05-09T08:50:59.668Z,22.33
2024-05-09T08:56:11.545Z,22.28
2024-05-09T09:01:40.822Z,22.33
2024-05-09T09:06:49.223Z,22.51
2024-05-09T09:11:55.756Z,22.66
2024-05-09T09:17:06.078Z,22.66
2024-05-09T09:22:18.407Z,22.42
2024-05-09T09:27:23.902Z,22.28
2024-05-09T09:32:29.466Z,21.98
2024-05-09T09:37:35.737Z,21.85
2024-05-09T09:42:45.052Z,21.85
2024-05-09T09:47:56.631Z,21.83
2024-05-09T09:53:04.246Z,21.83
2024-05-09T09:58:13.355Z,21.80
2024-05-09T10:03:29.600Z,21.98
2024-05-09T10:08:46.085Z,22.15
2024-05-09T10:13:59.459Z,22.01
2024-05-09T10:19:05.917Z,22.07
2024-05-09T10:24:08.463Z,22.03
2024-05-09T10:29:25.571Z,22.02
2024-05-09T10:34:35.782Z,21.99
2024-05-09T10:39:43.193Z,21.91
2024-05-09T10:44:50.906Z,22.03
2024-05-09T10:50:00.579Z,22.07
2024-05-09T10:55:06.332Z,22.09
2024-05-09T11:00:19.446Z,22.24
2024-05-09T11:05:34.670Z,22.35
2024-05-09T11:10:44.842Z,22.33
2024-05-09T11:15:47.281Z,22.32
2024-05-09T11:20:54.947Z,22.43
2024-05-09T11:26:04.755Z,22.33
2024-05-09T11:31:12.356Z,22.25
2024-05-09T11:36:28.667Z,22.14
2024-05-09T11:41:36.547Z,22.17
2024-05-09T11:46:43.622Z,22.06
2024-05-09T11:51:49.354Z,21.95
2024-05-09T11:56:53.883Z,21.84
2024-05-09T12:02:08.451Z,21.84
2024-05-09T12:07:13.965Z,21.89
2024-05-09T12:12:18.084Z,21.88
2024-05-09T12:17:29.704Z,21.77
2024-05-09T12:22:47.314Z,21.69
2024-05-09T12:27:53.643Z,21.63
2024-05-09T12:33:04.686Z,21.57
2024-05-09T12:38:09.588Z,21.64
2024-05-09T12:43:14.630Z,21.67
2024-05-09T12:48:24.855Z,21.60
2024-05-09T12:53:38.677Z,21.54
2024-05-09T12:58:55.814Z,21.55
2024-05-09T13:04:08.034Z,21.37
2024-05-09T13:09:25.392Z,21.33
2024-05-09T13:14:35.223Z,21.25
2024-05-09T13:19:42.197Z,21.16
2024-05-09T13:24:48.986Z,21.11
2024-05-09T13:29:58.922Z,20.97
2024-05-09T13:35:11.822Z,20.81
2024-05-09T13:45:47.045Z,20.71
2024-05-09T13:50:54.171Z,20.83
2024-05-09T13:56:03.498Z,20.83
2024-05-09T14:01:20.122Z,20.67
2024-05-09T14:06:23.368Z,20.67
2024-05-09T14:11:29.536Z,20.73
2024-05-09T14:16:39.516Z,20.81
2024-05-09T14:21:45.807Z,20.82
2024-05-09T14:26:52.809Z,20.86
2024-05-09T14:32:06.018Z,20.74
2024-05-09T14:37:09.881Z,20.78
2024-05-09T14:42:25.390Z,20.83
2024-05-09T14:47:47.560Z,20.77
2024-05-09T14:52:56.396Z,20.81
2024-05-09T14:58:04.953Z,20.89
2024-05-09T15:03:12.690Z,20.84
2024-05-09T15:08:20.078Z,20.77
2024-05-09T15:13:29.255Z,20.68
2024-05-09T15:18:33.214Z,20.67
2024-05-09T15:23:36.477Z,20.71
2024-05-09T15:28:44.686Z,20.71
2024-05-09T15:33:54.390Z,20.72
2024-05-09T15:39:04.361Z,20.67
2024-05-09T15:44:13.234Z,20.60
2024-05-09T15:49:19.774Z,20.54
2024-05-09T15:54:25.453Z,20.60
2024-05-09T15:59:51.782Z,20.66
2024-05-09T16:04:57.839Z,20.57
2024-05-09T16:10:05.330Z,20.56
2024-05-09T16:15:18.166Z,20.63
2024-05-09T16:20:51.311Z,20.59
2024-05-09T16:26:00.675Z,20.56
2024-05-09T16:31:08.120Z,20.47
2024-05-09T16:36:27.167Z,20.44
2024-05-09T16:41:37.115Z,20.49
2024-05-09T16:47:20.644Z,20.51
2024-05-09T16:52:24.758Z,20.47
2024-05-09T16:57:44.130Z,20.47
2024-05-09T17:03:00.402Z,20.46
2024-05-09T17:08:12.138Z,20.40
2024-05-09T17:13:25.155Z,20.37
2024-05-09T17:18:38.843Z,20.34
2024-05-09T17:23:49.084Z,20.33
2024-05-09T17:28:51.887Z,20.29
2024-05-09T17:34:07.101Z,20.26
2024-05-09T17:39:09.845Z,20.24
2024-05-09T17:44:13.228Z,20.20
2024-05-09T17:49:28.915Z,20.16
2024-05-09T17:54:36.230Z,20.08
2024-05-09T18:00:11.320Z,20.03
2024-05-09T18:05:23.591Z,20.03
2024-05-09T18:10:35.422Z,20.04
2024-05-09T18:15:43.112Z,20.01
2024-05-09T18:21:00.945Z,20.01
2024-05-09T18:26:10.931Z,19.96
2024-05-09T18:31:19.388Z,19.85
2024-05-09T18:36:24.560Z,19.80
2024-05-09T18:41:27.725Z,19.78
2024-05-09T18:46:45.928Z,19.70
2024-05-09T18:51:52.425Z,19.65
2024-05-09T18:56:56.768Z,19.60
2024-05-09T19:02:10.782Z,19.57
2024-05-09T19:07:13.775Z,19.53
2024-05-09T19:12:23.774Z,19.50
2024-05-09T19:17:34.659Z,19.48
2024-05-09T19:22:40.999Z,19.43
2024-05-09T19:27:44.416Z,19.40
2024-05-09T19:32:48.477Z,19.35
2024-05-09T19:38:12.211Z,19.30
2024-05-09T19:43:19.961Z,19.25
2024-05-09T19:48:29.306Z,19.21
2024-05-09T19:53:36.141Z,19.18
2024-05-09T19:58:55.568Z,19.17
2024-05-09T20:03:59.668Z,19.11
2024-05-09T20:09:06.034Z,19.07
2024-05-09T20:14:12.401Z,19.01
2024-05-09T20:19:22.127Z,19.00
2024-05-09T20:24:27.154Z,18.98
2024-05-09T20:29:30.959Z,18.97
2024-05-09T20:34:38.203Z,18.96
2024-05-09T20:39:48.046Z,18.92
2024-05-09T20:44:55.825Z,18.88
2024-05-09T20:50:02.631Z,18.82
2024-05-09T20:55:06.698Z,18.79
2024-05-09T21:00:18.745Z,18.77
2024-05-09T21:05:32.227Z,18.78
2024-05-09T21:10:37.202Z,18.77
2024-05-09T21:15:43.983Z,18.78
2024-05-09T21:20:47.275Z,18.78
2024-05-09T21:25:59.411Z,18.80
2024-05-09T21:31:07.344Z,18.81
2024-05-09T21:36:12.619Z,18.78
2024-05-09T21:41:20.429Z,18.77
2024-05-09T21:46:27.050Z,18.77
2024-05-09T21:51:31.197Z,18.77
2024-05-09T21:56:38.554Z,18.78
2024-05-09T22:01:53.238Z,18.76
2024-05-09T22:07:02.208Z,18.71
2024-05-09T22:12:10.861Z,18.63
2024-05-09T22:17:14.853Z,18.59
2024-05-09T22:22:28.220Z,18.54
2024-05-09T22:27:35.301Z,18.49
2024-05-09T22:32:45.411Z,18.44
2024-05-09T22:37:54.068Z,18.40
2024-05-09T22:43:00.044Z,18.35
2024-05-09T22:48:19.063Z,18.32
2024-05-09T22:53:28.899Z,18.27
2024-05-09T22:58:37.203Z,18.23
2024-05-09T23:03:46.996Z,18.21
2024-05-09T23:08:53.267Z,18.14
2024-05-09T23:14:00.120Z,18.08
2024-05-09T23:19:23.758Z,18.04
2024-05-09T23:24:38.263Z,18.00
2024-05-09T23:29:51.204Z,17.95
2024-05-09T23:35:13.750Z,17.87
2024-05-09T23:40:37.990Z,17.85
2024-05-09T23:45:45.333Z,17.78
2024-05-09T23:50:56.757Z,17.72
2024-05-09T23:56:11.661Z,17.67
